createdAt,value
2018-07-20T00:00:45.168Z,17.80
2018-07-20T00:01:50.634Z,17.80
2018-07-20T00:02:56.033Z,17.80
2018-07-20T00:04:01.460Z,17.80
2018-07-20T00:05:07.784Z,17.80
2018-07-20T00:06:13.196Z,17.70
2018-07-20T00:07:18.660Z,17.70
2018-07-20T00:08:24.099Z,17.70
2018-07-20T00:09:29.525Z,17.70
2018-07-20T00:10:35.013Z,17.70
2018-07-20T00:11:40.473Z,17.70
2018-07-20T00:12:45.884Z,17.70
2018-07-20T00:13:51.837Z,17.70
2018-07-20T00:14:57.205Z,17.60
2018-07-20T00:17:07.616Z,17.50
2018-07-20T00:18:13.027Z,17.50
2018-07-20T00:19:18.551Z,17.50
2018-07-20T00:20:24.034Z,17.50
2018-07-20T00:21:29.452Z,17.50
2018-07-20T00:22:34.925Z,17.50
2018-07-20T00:23:40.425Z,17.50
2018-07-20T00:24:45.989Z,17.50
2018-07-20T00:25:51.456Z,17.50
2018-07-20T00:26:57.031Z,17.40
2018-07-20T00:28:02.460Z,17.40
2018-07-20T00:29:07.854Z,17.40
2018-07-20T00:30:13.253Z,17.40
2018-07-20T00:31:18.704Z,17.40
2018-07-20T00:32:24.396Z,17.40
2018-07-20T00:33:29.853Z,17.40
2018-07-20T00:34:35.267Z,17.30
2018-07-20T00:35:40.705Z,17.30
2018-07-20T00:36:46.108Z,17.30
2018-07-20T00:37:51.590Z,17.20
2018-07-20T00:38:57.290Z,17.10
2018-07-20T00:40:02.693Z,17.10
2018-07-20T00:41:08.181Z,17.20
2018-07-20T00:42:14.210Z,17.20
2018-07-20T00:43:19.594Z,17.20
2018-07-20T00:44:25.091Z,17.30
2018-07-20T00:45:30.532Z,17.30
2018-07-20T00:46:35.948Z,17.30
2018-07-20T00:47:41.778Z,17.20
2018-07-20T00:48:47.160Z,17.20
2018-07-20T00:49:52.589Z,17.20
2018-07-20T00:50:58.025Z,17.20
2018-07-20T00:52:03.445Z,17.10
2018-07-20T00:53:08.913Z,17.10
2018-07-20T00:54:14.454Z,17.10
2018-07-20T00:55:19.873Z,17.00
2018-07-20T00:56:25.265Z,17.00
2018-07-20T00:57:30.684Z,16.90
2018-07-20T00:58:36.206Z,17.00
2018-07-20T00:59:41.610Z,17.00
2018-07-20T01:00:47.051Z,16.90
2018-07-20T01:01:52.493Z,16.90
2018-07-20T01:02:57.908Z,16.90
2018-07-20T01:04:03.342Z,16.90
2018-07-20T01:05:08.802Z,16.90
2018-07-20T01:06:14.221Z,16.80
2018-07-20T01:07:19.642Z,16.80
2018-07-20T01:08:25.090Z,16.90
2018-07-20T01:09:30.901Z,16.90
2018-07-20T01:10:36.359Z,16.90
2018-07-20T01:11:41.894Z,16.90
2018-07-20T01:12:47.334Z,16.90
2018-07-20T01:13:52.796Z,16.90
2018-07-20T01:14:58.333Z,16.90
2018-07-20T01:16:03.894Z,16.90
2018-07-20T01:17:09.405Z,16.90
2018-07-20T01:18:14.781Z,16.90
2018-07-20T01:19:20.253Z,16.80
2018-07-20T01:20:25.722Z,16.80
2018-07-20T01:21:31.225Z,16.70
2018-07-20T01:22:36.604Z,16.80
2018-07-20T01:23:42.032Z,16.80
2018-07-20T01:24:47.414Z,16.70
2018-07-20T01:25:52.985Z,16.70
2018-07-20T01:26:58.437Z,16.70
2018-07-20T01:28:03.837Z,16.60
2018-07-20T01:29:09.958Z,16.70
2018-07-20T01:30:15.380Z,16.70
2018-07-20T01:31:20.956Z,16.60
2018-07-20T01:32:26.425Z,16.60
2018-07-20T01:33:31.825Z,16.60
2018-07-20T01:34:37.265Z,16.50
2018-07-20T01:35:42.686Z,16.50
2018-07-20T01:36:48.121Z,16.50
2018-07-20T01:37:53.529Z,16.50
2018-07-20T01:38:58.938Z,16.50
2018-07-20T01:40:04.858Z,16.50
2018-07-20T01:41:10.745Z,16.50
2018-07-20T01:42:16.229Z,16.50
2018-07-20T01:43:21.725Z,16.50
2018-07-20T01:44:27.138Z,16.40
2018-07-20T01:45:32.558Z,16.40
2018-07-20T01:46:38.228Z,16.40
2018-07-20T01:47:43.662Z,16.30
2018-07-20T01:48:49.032Z,16.40
2018-07-20T01:49:54.473Z,16.40
2018-07-20T01:50:59.874Z,16.40
2018-07-20T01:52:05.297Z,16.30
2018-07-20T01:53:10.760Z,16.30
2018-07-20T01:54:16.205Z,16.30
2018-07-20T01:56:27.059Z,16.30
2018-07-20T01:57:32.450Z,16.30
2018-07-20T01:58:37.956Z,16.30
2018-07-20T01:59:43.325Z,16.30
2018-07-20T02:00:48.736Z,16.20
2018-07-20T02:01:54.228Z,16.20
2018-07-20T02:02:59.641Z,16.20
2018-07-20T02:04:05.141Z,16.20
2018-07-20T02:05:10.573Z,16.20
2018-07-20T02:06:16.026Z,16.20
2018-07-20T02:07:21.465Z,16.10
2018-07-20T02:08:27.259Z,16.10
2018-07-20T02:09:32.772Z,16.10
2018-07-20T02:10:38.176Z,16.10
2018-07-20T02:11:43.622Z,16.10
2018-07-20T02:12:49.004Z,16.10
2018-07-20T02:13:54.504Z,16.00
2018-07-20T02:15:00.229Z,16.00
2018-07-20T02:16:05.669Z,16.10
2018-07-20T02:17:11.800Z,16.10
2018-07-20T02:18:17.286Z,16.10
2018-07-20T02:19:22.868Z,16.10
2018-07-20T02:20:28.307Z,16.10
2018-07-20T02:21:33.786Z,16.10
2018-07-20T02:22:39.136Z,16.10
2018-07-20T02:23:44.545Z,16.00
2018-07-20T02:24:50.012Z,15.90
2018-07-20T02:25:55.396Z,15.90
2018-07-20T02:28:05.950Z,15.90
2018-07-20T02:29:11.357Z,15.90
2018-07-20T02:30:16.821Z,15.80
2018-07-20T02:31:22.239Z,15.80
2018-07-20T02:32:27.629Z,15.80
2018-07-20T02:33:33.054Z,15.70
2018-07-20T02:34:38.531Z,15.80
2018-07-20T02:35:43.979Z,15.80
2018-07-20T02:36:49.356Z,15.90
2018-07-20T02:37:54.785Z,15.80
2018-07-20T02:39:00.216Z,15.90
2018-07-20T02:40:05.948Z,15.80
2018-07-20T02:41:11.385Z,15.80
2018-07-20T02:42:16.852Z,15.80
2018-07-20T02:43:22.334Z,15.80
2018-07-20T02:44:27.751Z,15.80
2018-07-20T02:45:33.594Z,15.80
2018-07-20T02:46:39.360Z,15.80
2018-07-20T02:48:50.698Z,15.80
2018-07-20T02:49:56.130Z,15.70
2018-07-20T02:51:01.889Z,15.70
2018-07-20T02:52:07.478Z,15.60
2018-07-20T02:53:12.867Z,15.70
2018-07-20T02:54:18.300Z,15.70
2018-07-20T02:55:23.800Z,15.70
2018-07-20T02:56:29.592Z,15.70
2018-07-20T02:57:34.971Z,15.70
2018-07-20T02:58:40.359Z,15.70
2018-07-20T02:59:45.849Z,15.60
2018-07-20T03:00:51.394Z,15.50
2018-07-20T03:01:56.788Z,15.50
2018-07-20T03:03:02.270Z,15.60
2018-07-20T03:04:08.213Z,15.60
2018-07-20T03:05:13.672Z,15.50
2018-07-20T03:06:19.290Z,15.50
2018-07-20T03:07:24.706Z,15.50
2018-07-20T03:08:30.117Z,15.50
2018-07-20T03:09:35.502Z,15.60
2018-07-20T03:10:40.981Z,15.50
2018-07-20T03:13:56.722Z,15.30
2018-07-20T03:15:02.120Z,15.30
2018-07-20T03:16:07.613Z,15.40
2018-07-20T03:17:13.604Z,15.40
2018-07-20T03:18:19.034Z,15.40
2018-07-20T03:19:24.515Z,15.30
2018-07-20T03:20:30.002Z,15.30
2018-07-20T03:21:35.416Z,15.30
2018-07-20T03:22:40.861Z,15.30
2018-07-20T03:23:46.277Z,15.30
2018-07-20T03:24:51.717Z,15.30
2018-07-20T03:25:57.148Z,15.30
2018-07-20T03:27:02.928Z,15.30
2018-07-20T03:28:08.427Z,15.30
2018-07-20T03:29:13.846Z,15.30
2018-07-20T03:30:19.266Z,15.30
2018-07-20T03:31:24.679Z,15.20
2018-07-20T03:32:30.108Z,15.30
2018-07-20T03:33:35.570Z,15.20
2018-07-20T03:34:41.080Z,15.20
2018-07-20T03:35:46.549Z,15.20
2018-07-20T03:36:51.995Z,15.10
2018-07-20T03:37:57.836Z,15.10
2018-07-20T03:39:03.284Z,15.20
2018-07-20T03:40:08.789Z,15.20
2018-07-20T03:41:14.239Z,15.10
2018-07-20T03:42:19.694Z,15.10
2018-07-20T03:43:25.145Z,15.20
2018-07-20T03:44:30.553Z,15.10
2018-07-20T03:45:36.030Z,15.10
2018-07-20T03:46:41.476Z,15.20
2018-07-20T03:47:46.959Z,15.10
2018-07-20T03:48:52.517Z,15.10
2018-07-20T03:49:57.932Z,15.10
2018-07-20T03:51:03.370Z,15.10
2018-07-20T03:52:09.215Z,15.10
2018-07-20T03:53:14.596Z,15.10
2018-07-20T03:54:20.009Z,15.10
2018-07-20T03:55:25.454Z,15.00
2018-07-20T03:56:30.845Z,15.00
2018-07-20T03:57:36.375Z,15.00
2018-07-20T03:58:41.769Z,15.00
2018-07-20T03:59:47.156Z,15.10
2018-07-20T04:00:52.772Z,15.10
2018-07-20T04:01:58.220Z,15.10
2018-07-20T04:03:03.705Z,15.10
2018-07-20T04:04:09.121Z,15.10
2018-07-20T04:05:14.551Z,15.10
2018-07-20T04:06:19.960Z,15.20
2018-07-20T04:07:25.453Z,15.20
2018-07-20T04:08:30.862Z,15.20
2018-07-20T04:09:36.249Z,15.20
2018-07-20T04:10:41.732Z,15.20
2018-07-20T04:11:47.115Z,15.20
2018-07-20T04:12:53.288Z,15.20
2018-07-20T04:13:58.669Z,15.20
2018-07-20T04:15:04.187Z,15.30
2018-07-20T04:16:09.569Z,15.40
2018-07-20T04:17:15.046Z,15.50
2018-07-20T04:18:20.524Z,15.60
2018-07-20T04:19:25.948Z,15.70
2018-07-20T04:20:31.377Z,15.80
2018-07-20T04:21:36.872Z,16.00
2018-07-20T04:22:42.398Z,16.00
2018-07-20T04:23:47.873Z,16.20
2018-07-20T04:24:53.309Z,16.20
2018-07-20T04:25:58.760Z,16.30
2018-07-20T04:27:04.194Z,16.50
2018-07-20T04:28:10.108Z,16.60
2018-07-20T04:29:15.538Z,16.70
2018-07-20T04:30:20.967Z,16.70
2018-07-20T04:31:26.580Z,16.80
2018-07-20T04:32:31.995Z,16.90
2018-07-20T04:33:37.388Z,16.90
2018-07-20T04:34:42.793Z,16.90
2018-07-20T04:35:48.209Z,17.00
2018-07-20T04:36:53.668Z,17.00
2018-07-20T04:37:59.080Z,17.10
2018-07-20T04:39:07.044Z,17.10
2018-07-20T04:40:12.468Z,17.20
2018-07-20T04:41:17.899Z,17.30
2018-07-20T04:42:23.692Z,17.30
2018-07-20T04:43:29.102Z,17.40
2018-07-20T04:44:34.480Z,17.50
2018-07-20T04:45:39.882Z,17.60
2018-07-20T04:46:45.330Z,17.50
2018-07-20T04:47:50.818Z,17.60
2018-07-20T04:48:56.239Z,17.70
2018-07-20T04:50:01.696Z,17.90
2018-07-20T04:51:07.543Z,17.90
2018-07-20T04:52:12.952Z,18.00
2018-07-20T04:53:18.440Z,18.10
2018-07-20T04:54:23.834Z,18.10
2018-07-20T04:55:29.256Z,18.20
2018-07-20T04:56:34.711Z,18.10
2018-07-20T04:57:40.116Z,18.10
2018-07-20T04:58:46.004Z,18.10
2018-07-20T05:00:56.452Z,18.10
2018-07-20T05:02:01.881Z,18.10
2018-07-20T05:03:07.929Z,18.20
2018-07-20T05:04:13.372Z,18.20
2018-07-20T05:05:19.115Z,18.10
2018-07-20T05:06:24.521Z,18.00
2018-07-20T05:07:29.952Z,17.80
2018-07-20T05:08:35.382Z,17.60
2018-07-20T05:09:40.949Z,17.40
2018-07-20T05:10:46.358Z,17.20
2018-07-20T05:11:51.806Z,17.00
2018-07-20T05:12:57.211Z,16.90
2018-07-20T05:14:02.640Z,16.80
2018-07-20T05:15:08.178Z,16.80
2018-07-20T05:16:13.585Z,16.70
2018-07-20T05:17:19.129Z,16.70
2018-07-20T05:18:24.572Z,16.70
2018-07-20T05:19:29.966Z,16.70
2018-07-20T05:20:35.392Z,16.60
2018-07-20T05:21:40.848Z,16.60
2018-07-20T05:22:46.296Z,16.70
2018-07-20T05:23:51.739Z,16.70
2018-07-20T05:24:57.196Z,16.70
2018-07-20T05:26:02.658Z,16.70
2018-07-20T05:27:08.068Z,16.60
2018-07-20T05:28:13.624Z,16.60
2018-07-20T05:29:19.073Z,16.70
2018-07-20T05:30:24.528Z,16.70
2018-07-20T05:31:30.031Z,16.70
2018-07-20T05:32:35.494Z,16.70
2018-07-20T05:33:40.917Z,16.70
2018-07-20T05:34:46.496Z,16.70
2018-07-20T05:35:51.996Z,16.70
2018-07-20T05:36:57.449Z,16.80
2018-07-20T05:38:03.012Z,16.80
2018-07-20T05:39:10.420Z,16.80
2018-07-20T05:40:15.942Z,16.80
2018-07-20T05:41:21.958Z,16.90
2018-07-20T05:42:27.397Z,16.90
2018-07-20T05:43:32.764Z,17.00
2018-07-20T05:44:38.185Z,17.00
2018-07-20T05:45:43.592Z,17.00
2018-07-20T05:46:49.028Z,17.00
2018-07-20T05:47:54.749Z,17.00
2018-07-20T05:49:00.173Z,17.10
2018-07-20T05:50:07.769Z,17.10
2018-07-20T05:51:13.401Z,17.10
2018-07-20T05:53:23.912Z,17.10
2018-07-20T05:54:29.335Z,17.10
2018-07-20T05:55:34.756Z,17.20
2018-07-20T05:56:40.193Z,17.20
2018-07-20T05:57:45.919Z,17.30
2018-07-20T05:58:51.360Z,17.30
2018-07-20T05:59:56.753Z,17.20
2018-07-20T06:01:02.188Z,17.20
2018-07-20T06:02:07.640Z,17.30
2018-07-20T06:03:13.120Z,17.30
2018-07-20T06:04:19.036Z,17.30
2018-07-20T06:05:24.479Z,17.40
2018-07-20T06:06:29.937Z,17.50
2018-07-20T06:07:35.387Z,17.50
2018-07-20T06:08:40.846Z,17.50
2018-07-20T06:09:46.380Z,17.60
2018-07-20T06:10:51.861Z,17.60
2018-07-20T06:11:57.298Z,17.60
2018-07-20T06:13:02.802Z,17.70
2018-07-20T06:14:08.780Z,17.70
2018-07-20T06:15:14.220Z,17.70
2018-07-20T06:16:19.795Z,17.70
2018-07-20T06:17:25.237Z,17.70
2018-07-20T06:18:30.677Z,17.70
2018-07-20T06:19:36.126Z,17.80
2018-07-20T06:20:41.568Z,17.80
2018-07-20T06:21:47.557Z,17.80
2018-07-20T06:22:53.025Z,17.80
2018-07-20T06:23:58.528Z,17.90
2018-07-20T06:25:04.012Z,17.90
2018-07-20T06:26:09.491Z,17.90
2018-07-20T06:27:14.979Z,18.00
2018-07-20T06:28:20.534Z,18.00
2018-07-20T06:29:25.986Z,18.10
2018-07-20T06:30:31.462Z,18.10
2018-07-20T06:31:36.972Z,18.20
2018-07-20T06:32:42.448Z,18.30
2018-07-20T06:33:48.140Z,18.40
2018-07-20T06:34:53.628Z,18.50
2018-07-20T06:35:59.145Z,18.60
2018-07-20T06:37:04.565Z,18.80
2018-07-20T06:38:10.136Z,18.90
2018-07-20T06:39:15.576Z,18.90
2018-07-20T06:40:21.012Z,19.10
2018-07-20T06:41:26.452Z,19.10
2018-07-20T06:42:31.951Z,19.10
2018-07-20T06:43:37.461Z,19.10
2018-07-20T06:44:42.953Z,19.10
2018-07-20T06:45:48.376Z,19.20
2018-07-20T06:46:53.796Z,19.20
2018-07-20T06:47:59.329Z,19.20
2018-07-20T06:49:04.970Z,19.20
2018-07-20T06:50:17.451Z,19.30
2018-07-20T06:51:22.848Z,19.40
2018-07-20T06:52:28.342Z,19.40
2018-07-20T06:53:33.824Z,19.40
2018-07-20T06:54:39.277Z,19.40
2018-07-20T06:55:44.743Z,19.50
2018-07-20T06:56:50.102Z,19.60
2018-07-20T06:57:55.510Z,19.60
2018-07-20T06:59:01.356Z,19.80
2018-07-20T07:00:07.540Z,19.90
2018-07-20T07:01:12.961Z,20.00
2018-07-20T07:02:18.393Z,20.00
2018-07-20T07:03:23.834Z,20.10
2018-07-20T07:04:29.307Z,20.10
2018-07-20T07:05:34.773Z,20.10
2018-07-20T07:06:40.217Z,20.10
2018-07-20T07:07:45.756Z,20.20
2018-07-20T07:08:51.309Z,20.20
2018-07-20T07:09:56.809Z,20.20
2018-07-20T07:11:02.289Z,20.20
2018-07-20T07:12:07.824Z,20.20
2018-07-20T07:13:13.292Z,20.30
2018-07-20T07:14:18.775Z,20.40
2018-07-20T07:15:24.206Z,20.40
2018-07-20T07:16:29.637Z,20.40
2018-07-20T07:17:35.072Z,20.50
2018-07-20T07:18:40.509Z,20.50
2018-07-20T07:19:46.069Z,20.50
2018-07-20T07:20:51.506Z,20.60
2018-07-20T07:21:56.889Z,20.50
2018-07-20T07:23:02.298Z,20.50
2018-07-20T07:24:08.433Z,20.50
2018-07-20T07:25:13.847Z,20.60
2018-07-20T07:26:19.292Z,20.60
2018-07-20T07:27:24.756Z,20.60
2018-07-20T07:28:30.209Z,20.60
2018-07-20T07:29:35.633Z,20.60
2018-07-20T07:30:41.525Z,20.70
2018-07-20T07:31:46.999Z,20.70
2018-07-20T07:32:52.429Z,20.80
2018-07-20T07:33:57.837Z,20.80
2018-07-20T07:35:03.285Z,20.90
2018-07-20T07:36:08.794Z,20.90
2018-07-20T07:37:14.263Z,20.90
2018-07-20T07:38:19.700Z,20.90
2018-07-20T07:39:25.101Z,20.90
2018-07-20T07:40:30.540Z,20.90
2018-07-20T07:41:36.044Z,21.00
2018-07-20T07:42:41.648Z,21.00
2018-07-20T07:43:47.075Z,21.10
2018-07-20T07:44:52.672Z,21.10
2018-07-20T07:45:58.145Z,21.20
2018-07-20T07:47:03.716Z,21.30
2018-07-20T07:48:09.112Z,21.40
2018-07-20T07:49:14.571Z,21.40
2018-07-20T07:50:19.961Z,21.40
2018-07-20T07:51:25.724Z,21.50
2018-07-20T07:52:31.236Z,21.40
2018-07-20T07:53:36.732Z,21.40
2018-07-20T07:54:42.152Z,21.50
2018-07-20T07:55:47.612Z,21.50
2018-07-20T07:56:53.057Z,21.60
2018-07-20T07:57:58.526Z,21.60
2018-07-20T07:59:04.057Z,21.60
2018-07-20T08:00:09.584Z,21.70
2018-07-20T08:01:15.017Z,21.70
2018-07-20T08:02:20.778Z,21.70
2018-07-20T08:03:26.301Z,21.80
2018-07-20T08:04:31.731Z,21.90
2018-07-20T08:05:37.617Z,22.10
2018-07-20T08:06:43.032Z,22.10
2018-07-20T08:07:48.479Z,22.10
2018-07-20T08:08:53.896Z,22.10
2018-07-20T08:09:59.531Z,22.10
2018-07-20T08:11:04.876Z,22.10
2018-07-20T08:12:10.302Z,22.10
2018-07-20T08:13:15.729Z,22.10
2018-07-20T08:14:21.180Z,22.20
2018-07-20T08:15:26.603Z,22.30
2018-07-20T08:16:32.081Z,22.40
2018-07-20T08:17:37.480Z,22.40
2018-07-20T08:18:42.909Z,22.50
2018-07-20T08:19:48.474Z,22.50
2018-07-20T08:20:53.904Z,22.60
2018-07-20T08:21:59.429Z,22.80
2018-07-20T08:23:04.918Z,22.90
2018-07-20T08:24:10.377Z,23.00
2018-07-20T08:25:16.193Z,23.20
2018-07-20T08:26:21.657Z,23.20
2018-07-20T08:27:27.041Z,23.30
2018-07-20T08:28:32.937Z,23.40
2018-07-20T08:29:38.403Z,23.40
2018-07-20T08:30:43.850Z,23.30
2018-07-20T08:31:49.305Z,23.30
2018-07-20T08:32:54.801Z,23.20
2018-07-20T08:34:00.226Z,23.20
2018-07-20T08:35:05.976Z,23.20
2018-07-20T08:36:11.400Z,23.20
2018-07-20T08:37:16.943Z,23.30
2018-07-20T08:38:22.353Z,23.30
2018-07-20T08:39:27.789Z,23.10
2018-07-20T08:40:33.214Z,23.20
2018-07-20T08:41:39.008Z,23.20
2018-07-20T08:42:44.456Z,23.20
2018-07-20T08:44:55.002Z,23.40
2018-07-20T08:46:00.413Z,23.50
2018-07-20T08:47:06.101Z,23.50
2018-07-20T08:48:11.517Z,23.60
2018-07-20T08:49:17.396Z,23.50
2018-07-20T08:50:23.817Z,23.40
2018-07-20T08:51:29.288Z,23.40
2018-07-20T08:52:34.876Z,23.40
2018-07-20T08:53:40.272Z,23.40
2018-07-20T08:54:45.729Z,23.40
2018-07-20T08:55:51.258Z,23.50
2018-07-20T08:56:56.701Z,23.40
2018-07-20T08:58:02.162Z,23.40
2018-07-20T08:59:07.887Z,23.50
2018-07-20T09:00:13.232Z,23.50
2018-07-20T09:01:19.283Z,23.50
2018-07-20T09:02:24.859Z,23.60
2018-07-20T09:03:30.329Z,23.70
2018-07-20T09:05:40.844Z,23.70
2018-07-20T09:06:46.293Z,23.70
2018-07-20T09:07:51.741Z,23.70
2018-07-20T09:08:57.153Z,23.70
2018-07-20T09:10:02.839Z,23.80
2018-07-20T09:11:08.238Z,23.90
2018-07-20T09:12:13.655Z,24.00
2018-07-20T09:13:19.122Z,24.00
2018-07-20T09:14:24.597Z,24.10
2018-07-20T09:15:30.033Z,24.10
2018-07-20T09:16:35.464Z,24.10
2018-07-20T09:17:40.917Z,24.20
2018-07-20T09:18:46.468Z,24.20
2018-07-20T09:19:51.962Z,24.30
2018-07-20T09:20:57.389Z,24.30
2018-07-20T09:22:03.480Z,24.40
2018-07-20T09:23:08.966Z,24.40
2018-07-20T09:24:14.430Z,24.50
2018-07-20T09:25:19.838Z,24.60
2018-07-20T09:26:25.676Z,24.60
2018-07-20T09:27:31.142Z,24.50
2018-07-20T09:28:36.529Z,24.50
2018-07-20T09:29:41.998Z,24.60
2018-07-20T09:30:47.404Z,24.70
2018-07-20T09:31:53.018Z,24.80
2018-07-20T09:32:58.456Z,24.80
2018-07-20T09:34:03.932Z,24.90
2018-07-20T09:35:09.379Z,24.90
2018-07-20T09:36:14.812Z,25.00
2018-07-20T09:37:21.342Z,25.10
2018-07-20T09:38:26.746Z,25.10
2018-07-20T09:39:32.136Z,25.20
2018-07-20T09:41:42.605Z,25.10
2018-07-20T09:42:48.133Z,25.10
2018-07-20T09:43:53.869Z,25.10
2018-07-20T09:44:59.351Z,25.10
2018-07-20T09:46:04.838Z,25.10
2018-07-20T09:47:10.241Z,25.20
2018-07-20T09:48:15.728Z,25.10
2018-07-20T09:49:21.193Z,25.10
2018-07-20T09:50:26.653Z,25.20
2018-07-20T09:51:32.050Z,25.30
2018-07-20T09:52:37.482Z,25.30
2018-07-20T09:53:42.880Z,25.30
2018-07-20T09:54:48.363Z,25.30
2018-07-20T09:55:54.132Z,25.30
2018-07-20T09:56:59.554Z,25.30
2018-07-20T09:58:05.039Z,25.40
2018-07-20T09:59:10.498Z,25.50
2018-07-20T10:00:51.903Z,25.50
2018-07-20T10:01:57.448Z,25.50
2018-07-20T10:03:02.957Z,25.60
2018-07-20T10:04:08.528Z,25.50
2018-07-20T10:05:13.948Z,25.50
2018-07-20T10:06:19.489Z,25.60
2018-07-20T10:07:24.973Z,25.60
2018-07-20T10:08:30.422Z,25.60
2018-07-20T10:09:35.868Z,25.70
2018-07-20T10:10:41.291Z,25.80
2018-07-20T10:11:46.801Z,25.90
2018-07-20T10:12:52.192Z,26.00
2018-07-20T10:13:57.682Z,26.00
2018-07-20T10:15:03.193Z,26.10
2018-07-20T10:16:08.699Z,26.20
2018-07-20T10:17:14.219Z,26.30
2018-07-20T10:18:19.703Z,26.50
2018-07-20T10:20:30.173Z,26.70
2018-07-20T10:21:35.634Z,26.70
2018-07-20T10:22:41.065Z,26.70
2018-07-20T10:23:46.478Z,26.70
2018-07-20T10:24:51.913Z,26.60
2018-07-20T10:25:57.336Z,26.60
2018-07-20T10:27:02.776Z,26.70
2018-07-20T10:28:08.201Z,26.70
2018-07-20T10:29:13.625Z,26.70
2018-07-20T10:30:19.081Z,26.60
2018-07-20T10:31:24.593Z,26.60
2018-07-20T10:32:30.758Z,26.60
2018-07-20T10:33:36.377Z,26.70
2018-07-20T10:34:41.817Z,26.80
2018-07-20T10:35:47.192Z,27.00
2018-07-20T10:36:52.583Z,27.10
2018-07-20T10:37:58.133Z,27.00
2018-07-20T10:39:03.778Z,26.90
2018-07-20T10:40:09.222Z,26.80
2018-07-20T10:41:14.680Z,26.80
2018-07-20T10:42:20.578Z,26.80
2018-07-20T10:43:26.038Z,26.80
2018-07-20T10:44:32.369Z,26.70
2018-07-20T10:45:38.334Z,26.60
2018-07-20T10:46:43.769Z,26.70
2018-07-20T10:47:49.191Z,26.70
2018-07-20T10:48:54.658Z,26.90
2018-07-20T10:50:00.081Z,26.90
2018-07-20T10:51:05.914Z,26.90
2018-07-20T10:52:11.377Z,27.00
2018-07-20T10:53:16.752Z,27.00
2018-07-20T10:54:22.200Z,27.00
2018-07-20T10:55:27.680Z,26.90
2018-07-20T10:56:33.156Z,27.10
2018-07-20T10:57:38.585Z,27.20
2018-07-20T10:59:49.605Z,27.50
2018-07-20T11:00:56.409Z,27.60
2018-07-20T11:02:01.825Z,27.60
2018-07-20T11:03:07.217Z,27.70
2018-07-20T11:04:12.618Z,27.90
2018-07-20T11:05:18.216Z,28.00
2018-07-20T11:06:23.680Z,28.00
2018-07-20T11:07:29.226Z,27.90
2018-07-20T11:08:34.748Z,27.90
2018-07-20T11:09:40.188Z,27.80
2018-07-20T11:10:45.712Z,27.70
2018-07-20T11:11:51.160Z,27.70
2018-07-20T11:12:56.757Z,27.60
2018-07-20T11:14:02.166Z,27.60
2018-07-20T11:15:07.676Z,27.60
2018-07-20T11:16:13.106Z,27.60
2018-07-20T11:17:18.537Z,27.70
2018-07-20T11:18:23.964Z,27.80
2018-07-20T11:19:29.409Z,27.80
2018-07-20T11:20:34.900Z,27.80
2018-07-20T11:21:40.301Z,27.80
2018-07-20T11:22:45.769Z,27.90
2018-07-20T11:23:51.257Z,28.20
2018-07-20T11:24:56.660Z,28.30
2018-07-20T11:26:02.168Z,28.50
2018-07-20T11:27:07.645Z,28.60
2018-07-20T11:28:13.045Z,28.60
2018-07-20T11:29:18.589Z,28.40
2018-07-20T11:30:24.034Z,28.30
2018-07-20T11:31:29.455Z,28.30
2018-07-20T11:32:34.882Z,28.20
2018-07-20T11:33:40.301Z,28.30
2018-07-20T11:34:45.739Z,28.50
2018-07-20T11:35:51.178Z,28.60
2018-07-20T11:36:57.072Z,28.50
2018-07-20T11:38:02.680Z,28.50
2018-07-20T11:39:10.162Z,28.50
2018-07-20T11:40:15.596Z,28.60
2018-07-20T11:41:21.940Z,28.60
2018-07-20T11:42:27.440Z,28.80
2018-07-20T11:43:33.248Z,28.90
2018-07-20T11:44:38.640Z,29.10
2018-07-20T11:45:44.057Z,29.10
2018-07-20T11:46:49.529Z,28.70
2018-07-20T11:47:54.901Z,28.80
2018-07-20T11:49:00.771Z,28.70
2018-07-20T11:50:06.478Z,28.60
2018-07-20T11:51:11.873Z,28.60
2018-07-20T11:52:18.074Z,28.60
2018-07-20T11:53:23.498Z,28.60
2018-07-20T11:54:28.944Z,28.50
2018-07-20T11:55:34.417Z,28.50
2018-07-20T11:56:39.894Z,28.60
2018-07-20T11:57:45.313Z,28.70
2018-07-20T11:58:51.232Z,28.80
2018-07-20T11:59:56.725Z,28.80
2018-07-20T12:01:02.215Z,28.90
2018-07-20T12:02:08.099Z,28.90
2018-07-20T12:03:13.548Z,28.90
2018-07-20T12:04:19.066Z,29.00
2018-07-20T12:05:24.480Z,29.00
2018-07-20T12:06:30.389Z,29.00
2018-07-20T12:07:35.781Z,29.00
2018-07-20T12:08:41.253Z,29.20
2018-07-20T12:09:47.021Z,29.20
2018-07-20T12:10:52.419Z,29.20
2018-07-20T12:11:58.750Z,29.20
2018-07-20T12:13:04.520Z,29.20
2018-07-20T12:14:10.097Z,29.20
2018-07-20T12:15:15.529Z,29.20
2018-07-20T12:16:20.961Z,29.30
2018-07-20T12:17:26.376Z,29.40
2018-07-20T12:18:31.870Z,29.50
2018-07-20T12:19:37.269Z,29.50
2018-07-20T12:20:42.669Z,29.40
2018-07-20T12:21:48.109Z,29.30
2018-07-20T12:22:53.620Z,29.30
2018-07-20T12:23:59.116Z,29.30
2018-07-20T12:25:04.577Z,29.40
2018-07-20T12:26:10.060Z,29.40
2018-07-20T12:29:25.721Z,29.40
2018-07-20T12:30:31.191Z,29.60
2018-07-20T12:32:41.802Z,29.60
2018-07-20T12:33:47.437Z,29.50
2018-07-20T12:34:52.851Z,29.50
2018-07-20T12:35:58.280Z,29.60
2018-07-20T12:37:03.825Z,29.50
2018-07-20T12:38:09.369Z,29.60
2018-07-20T12:39:14.845Z,29.60
2018-07-20T12:40:20.317Z,29.70
2018-07-20T12:41:25.741Z,29.80
2018-07-20T12:42:31.639Z,29.80
2018-07-20T12:43:37.073Z,29.70
2018-07-20T12:44:42.512Z,29.60
2018-07-20T12:45:47.925Z,29.60
2018-07-20T12:46:53.360Z,29.50
2018-07-20T12:47:58.836Z,29.50
2018-07-20T12:49:04.272Z,29.50
2018-07-20T12:50:09.770Z,29.50
2018-07-20T12:51:15.241Z,29.40
2018-07-20T12:52:20.845Z,29.40
2018-07-20T12:53:26.311Z,29.50
2018-07-20T12:54:31.785Z,29.60
2018-07-20T12:55:37.306Z,29.60
2018-07-20T12:56:42.701Z,29.60
2018-07-20T12:57:48.135Z,29.50
2018-07-20T12:58:53.601Z,29.50
2018-07-20T12:59:59.073Z,29.60
2018-07-20T13:01:04.565Z,29.60
2018-07-20T13:02:10.038Z,29.50
2018-07-20T13:03:15.481Z,29.20
2018-07-20T13:04:21.058Z,29.10
2018-07-20T13:05:26.837Z,29.00
2018-07-20T13:06:32.240Z,29.10
2018-07-20T13:07:37.737Z,29.20
2018-07-20T13:08:43.525Z,29.50
2018-07-20T13:09:48.948Z,29.50
2018-07-20T13:10:54.537Z,29.70
2018-07-20T13:12:00.026Z,29.80
2018-07-20T13:13:05.433Z,29.90
2018-07-20T13:14:11.848Z,30.00
2018-07-20T13:15:17.247Z,30.10
2018-07-20T13:16:23.173Z,30.30
2018-07-20T13:17:28.653Z,30.30
2018-07-20T13:18:34.064Z,30.20
2018-07-20T13:19:39.488Z,30.30
2018-07-20T13:20:44.897Z,30.30
2018-07-20T13:21:50.308Z,30.40
2018-07-20T13:22:55.700Z,30.40
2018-07-20T13:24:01.165Z,30.40
2018-07-20T13:25:06.682Z,30.30
2018-07-20T13:26:12.049Z,30.30
2018-07-20T13:27:17.824Z,30.30
2018-07-20T13:28:23.250Z,30.40
2018-07-20T13:29:28.672Z,30.10
2018-07-20T13:30:34.130Z,30.00
2018-07-20T13:31:39.608Z,30.10
2018-07-20T13:32:45.014Z,30.30
2018-07-20T13:33:51.126Z,30.50
2018-07-20T13:34:56.546Z,30.60
2018-07-20T13:36:02.018Z,30.70
2018-07-20T13:37:07.477Z,30.60
2018-07-20T13:38:13.252Z,30.60
2018-07-20T13:39:18.801Z,30.60
2018-07-20T13:40:24.373Z,30.70
2018-07-20T13:41:29.769Z,30.60
2018-07-20T13:42:35.224Z,30.60
2018-07-20T13:43:40.729Z,30.70
2018-07-20T13:44:46.122Z,30.80
2018-07-20T13:45:51.649Z,30.60
2018-07-20T13:48:02.093Z,30.40
2018-07-20T13:49:07.717Z,30.30
2018-07-20T13:50:13.271Z,30.30
2018-07-20T13:51:18.949Z,30.10
2018-07-20T13:53:29.456Z,30.10
2018-07-20T13:54:34.900Z,30.10
2018-07-20T13:55:40.358Z,30.20
2018-07-20T13:56:45.837Z,30.20
2018-07-20T13:57:51.643Z,30.00
2018-07-20T13:58:57.029Z,29.90
2018-07-20T14:00:02.512Z,29.90
2018-07-20T14:01:08.108Z,29.80
2018-07-20T14:02:13.548Z,29.80
2018-07-20T14:03:19.452Z,29.80
2018-07-20T14:04:24.899Z,29.70
2018-07-20T14:05:30.361Z,29.70
2018-07-20T14:06:35.824Z,29.70
2018-07-20T14:07:41.289Z,29.60
2018-07-20T14:08:46.909Z,29.50
2018-07-20T14:09:52.342Z,29.50
2018-07-20T14:10:57.797Z,29.40
2018-07-20T14:12:03.329Z,29.40
2018-07-20T14:13:08.840Z,29.40
2018-07-20T14:14:14.600Z,29.40
2018-07-20T14:15:20.121Z,29.40
2018-07-20T14:16:25.562Z,29.20
2018-07-20T14:17:30.986Z,29.30
2018-07-20T14:18:36.485Z,29.30
2018-07-20T14:19:41.933Z,29.30
2018-07-20T14:20:47.476Z,29.20
2018-07-20T14:21:52.985Z,29.10
2018-07-20T14:22:58.384Z,29.10
2018-07-20T14:24:03.987Z,29.20